臺北飛航情報區 - 掃描席(區管/近場)

METAR RCTP 301500Z 05007KT 9999 FEW020 12/08 Q1020 NOSIG RMK A3014=

站台狀態:Online
最後更新:2023-01-30 23:00:02